sensor_id;sensor_type;location;lat;lon;timestamp;P1;durP1;ratioP1;P2;durP2;ratioP2
6356;SDS011;3211;53.452;-2.264;2022-12-20T00:01:47;6.10;;;2.43;;
6356;SDS011;3211;53.452;-2.264;2022-12-20T00:04:14;7.13;;;2.40;;
6356;SDS011;3211;53.452;-2.264;2022-12-20T00:06:41;10.00;;;3.17;;
6356;SDS011;3211;53.452;-2.264;2022-12-20T00:09:08;6.83;;;2.33;;
6356;SDS011;3211;53.452;-2.264;2022-12-20T00:11:38;7.70;;;2.47;;
6356;SDS011;3211;53.452;-2.264;2022-12-20T00:14:06;7.43;;;3.10;;
6356;SDS011;3211;53.452;-2.264;2022-12-20T00:16:34;11.60;;;3.33;;
6356;SDS011;3211;53.452;-2.264;2022-12-20T00:19:02;7.43;;;2.43;;
6356;SDS011;3211;53.452;-2.264;2022-12-20T00:21:31;7.43;;;2.73;;
6356;SDS011;3211;53.452;-2.264;2022-12-20T00:23:59;9.73;;;2.57;;
6356;SDS011;3211;53.452;-2.264;2022-12-20T00:26:27;5.83;;;2.77;;
6356;SDS011;3211;53.452;-2.264;2022-12-20T00:28:56;3.97;;;2.23;;
6356;SDS011;3211;53.452;-2.264;2022-12-20T00:31:24;6.27;;;2.43;;
6356;SDS011;3211;53.452;-2.264;2022-12-20T00:33:53;5.83;;;2.07;;
6356;SDS011;3211;53.452;-2.264;2022-12-20T00:36:22;6.13;;;2.67;;
6356;SDS011;3211;53.452;-2.264;2022-12-20T00:38:51;9.63;;;2.33;;
6356;SDS011;3211;53.452;-2.264;2022-12-20T00:41:20;9.00;;;3.00;;
6356;SDS011;3211;53.452;-2.264;2022-12-20T00:43:48;6.93;;;2.80;;
6356;SDS011;3211;53.452;-2.264;2022-12-20T00:46:18;10.23;;;2.77;;
6356;SDS011;3211;53.452;-2.264;2022-12-20T00:48:47;8.50;;;2.67;;
6356;SDS011;3211;53.452;-2.264;2022-12-20T00:51:15;6.90;;;2.67;;
6356;SDS011;3211;53.452;-2.264;2022-12-20T00:53:44;5.87;;;2.37;;
6356;SDS011;3211;53.452;-2.264;2022-12-20T00:56:11;12.23;;;2.50;;
6356;SDS011;3211;53.452;-2.264;2022-12-20T00:58:40;9.97;;;2.10;;
6356;SDS011;3211;53.452;-2.264;2022-12-20T01:01:13;3.90;;;2.73;;
6356;SDS011;3211;53.452;-2.264;2022-12-20T01:03:43;6.90;;;2.20;;
6356;SDS011;3211;53.452;-2.264;2022-12-20T01:06:10;5.50;;;3.23;;
6356;SDS011;3211;53.452;-2.264;2022-12-20T01:08:37;4.87;;;2.43;;
6356;SDS011;3211;53.452;-2.264;2022-12-20T01:11:05;5.07;;;2.57;;
6356;SDS011;3211;53.452;-2.264;2022-12-20T01:13:34;8.30;;;2.90;;
6356;SDS011;3211;53.452;-2.264;2022-12-20T01:16:03;6.33;;;2.80;;
6356;SDS011;3211;53.452;-2.264;2022-12-20T01:18:31;5.87;;;3.57;;
6356;SDS011;3211;53.452;-2.264;2022-12-20T01:21:03;9.63;;;2.80;;
6356;SDS011;3211;53.452;-2.264;2022-12-20T01:23:31;6.03;;;2.00;;
6356;SDS011;3211;53.452;-2.264;2022-12-20T01:25:58;18.43;;;8.83;;
6356;SDS011;3211;53.452;-2.264;2022-12-20T01:28:26;13.63;;;6.73;;
6356;SDS011;3211;53.452;-2.264;2022-12-20T01:30:54;5.20;;;3.60;;
6356;SDS011;3211;53.452;-2.264;2022-12-20T01:33:21;4.73;;;2.87;;
6356;SDS011;3211;53.452;-2.264;2022-12-20T01:35:55;9.30;;;2.13;;
6356;SDS011;3211;53.452;-2.264;2022-12-20T01:38:24;5.00;;;1.57;;
6356;SDS011;3211;53.452;-2.264;2022-12-20T01:40:52;7.77;;;1.90;;
6356;SDS011;3211;53.452;-2.264;2022-12-20T01:43:21;8.40;;;2.00;;
6356;SDS011;3211;53.452;-2.264;2022-12-20T01:45:49;6.23;;;1.57;;
6356;SDS011;3211;53.452;-2.264;2022-12-20T01:48:21;2.07;;;1.50;;
6356;SDS011;3211;53.452;-2.264;2022-12-20T01:50:50;4.90;;;1.57;;
6356;SDS011;3211;53.452;-2.264;2022-12-20T01:53:19;6.37;;;1.83;;
6356;SDS011;3211;53.452;-2.264;2022-12-20T01:55:49;4.80;;;1.77;;
6356;SDS011;3211;53.452;-2.264;2022-12-20T01:58:16;1.93;;;1.50;;
6356;SDS011;3211;53.452;-2.264;2022-12-20T02:00:45;5.40;;;2.03;;
6356;SDS011;3211;53.452;-2.264;2022-12-20T02:03:13;3.00;;;1.43;;
6356;SDS011;3211;53.452;-2.264;2022-12-20T02:05:42;7.20;;;1.87;;
6356;SDS011;3211;53.452;-2.264;2022-12-20T02:08:13;3.43;;;1.60;;
6356;SDS011;3211;53.452;-2.264;2022-12-20T02:10:47;3.00;;;1.90;;
6356;SDS011;3211;53.452;-2.264;2022-12-20T02:13:34;4.53;;;1.53;;
6356;SDS011;3211;53.452;-2.264;2022-12-20T02:16:08;5.20;;;2.07;;
6356;SDS011;3211;53.452;-2.264;2022-12-20T02:18:40;3.70;;;1.90;;
6356;SDS011;3211;53.452;-2.264;2022-12-20T02:21:32;4.53;;;1.97;;
6356;SDS011;3211;53.452;-2.264;2022-12-20T02:27:27;4.00;;;2.43;;
6356;SDS011;3211;53.452;-2.264;2022-12-20T02:30:08;4.70;;;1.43;;
6356;SDS011;3211;53.452;-2.264;2022-12-20T02:32:38;4.10;;;3.10;;
6356;SDS011;3211;53.452;-2.264;2022-12-20T02:35:11;5.10;;;1.70;;
6356;SDS011;3211;53.452;-2.264;2022-12-20T02:37:49;3.13;;;1.87;;
6356;SDS011;3211;53.452;-2.264;2022-12-20T02:40:18;6.97;;;1.73;;
6356;SDS011;3211;53.452;-2.264;2022-12-20T02:42:49;6.87;;;1.80;;
6356;SDS011;3211;53.452;-2.264;2022-12-20T02:45:23;4.57;;;1.87;;
6356;SDS011;3211;53.452;-2.264;2022-12-20T02:47:52;5.53;;;1.90;;
6356;SDS011;3211;53.452;-2.264;2022-12-20T02:50:25;5.57;;;2.23;;
6356;SDS011;3211;53.452;-2.264;2022-12-20T02:52:56;3.60;;;1.70;;
6356;SDS011;3211;53.452;-2.264;2022-12-20T02:55:25;6.10;;;1.90;;
6356;SDS011;3211;53.452;-2.264;2022-12-20T02:57:59;2.97;;;1.63;;
6356;SDS011;3211;53.452;-2.264;2022-12-20T03:00:34;5.80;;;1.93;;
6356;SDS011;3211;53.452;-2.264;2022-12-20T03:03:07;3.40;;;1.60;;
6356;SDS011;3211;53.452;-2.264;2022-12-20T03:05:48;3.23;;;1.53;;
6356;SDS011;3211;53.452;-2.264;2022-12-20T03:08:17;2.13;;;1.30;;
6356;SDS011;3211;53.452;-2.264;2022-12-20T03:10:44;4.57;;;1.70;;
6356;SDS011;3211;53.452;-2.264;2022-12-20T03:13:11;6.20;;;2.00;;
6356;SDS011;3211;53.452;-2.264;2022-12-20T03:15:40;4.43;;;1.77;;
6356;SDS011;3211;53.452;-2.264;2022-12-20T03:18:07;5.00;;;1.80;;
6356;SDS011;3211;53.452;-2.264;2022-12-20T03:20:34;3.97;;;1.60;;
6356;SDS011;3211;53.452;-2.264;2022-12-20T03:23:01;6.03;;;1.70;;
6356;SDS011;3211;53.452;-2.264;2022-12-20T03:25:31;3.30;;;1.53;;
6356;SDS011;3211;53.452;-2.264;2022-12-20T03:27:58;9.50;;;2.10;;
6356;SDS011;3211;53.452;-2.264;2022-12-20T03:30:27;10.57;;;2.37;;
6356;SDS011;3211;53.452;-2.264;2022-12-20T03:32:55;2.93;;;1.83;;
6356;SDS011;3211;53.452;-2.264;2022-12-20T03:35:26;3.50;;;1.53;;
6356;SDS011;3211;53.452;-2.264;2022-12-20T03:37:53;5.60;;;1.90;;
6356;SDS011;3211;53.452;-2.264;2022-12-20T03:40:23;5.20;;;1.90;;
6356;SDS011;3211;53.452;-2.264;2022-12-20T03:42:50;4.50;;;1.90;;
6356;SDS011;3211;53.452;-2.264;2022-12-20T03:45:19;4.80;;;1.67;;
6356;SDS011;3211;53.452;-2.264;2022-12-20T03:47:46;2.70;;;1.87;;
6356;SDS011;3211;53.452;-2.264;2022-12-20T03:50:17;6.73;;;2.13;;
6356;SDS011;3211;53.452;-2.264;2022-12-20T03:52:44;4.17;;;1.77;;
6356;SDS011;3211;53.452;-2.264;2022-12-20T03:55:11;3.87;;;1.40;;
6356;SDS011;3211;53.452;-2.264;2022-12-20T03:57:38;3.83;;;1.80;;
6356;SDS011;3211;53.452;-2.264;2022-12-20T04:00:06;3.13;;;1.83;;
6356;SDS011;3211;53.452;-2.264;2022-12-20T04:02:34;6.10;;;1.97;;
6356;SDS011;3211;53.452;-2.264;2022-12-20T04:05:01;4.90;;;1.63;;
6356;SDS011;3211;53.452;-2.264;2022-12-20T04:07:48;4.93;;;1.43;;
6356;SDS011;3211;53.452;-2.264;2022-12-20T04:10:15;2.90;;;1.60;;
6356;SDS011;3211;53.452;-2.264;2022-12-20T04:12:42;5.97;;;1.97;;
6356;SDS011;3211;53.452;-2.264;2022-12-20T04:15:09;2.47;;;1.50;;
6356;SDS011;3211;53.452;-2.264;2022-12-20T04:17:36;5.33;;;1.93;;
6356;SDS011;3211;53.452;-2.264;2022-12-20T04:20:03;5.00;;;1.60;;
6356;SDS011;3211;53.452;-2.264;2022-12-20T04:22:43;6.63;;;1.73;;
6356;SDS011;3211;53.452;-2.264;2022-12-20T04:25:12;1.97;;;1.40;;
6356;SDS011;3211;53.452;-2.264;2022-12-20T04:27:39;4.40;;;1.43;;
6356;SDS011;3211;53.452;-2.264;2022-12-20T04:30:06;3.33;;;1.53;;
6356;SDS011;3211;53.452;-2.264;2022-12-20T04:32:34;2.37;;;1.77;;
6356;SDS011;3211;53.452;-2.264;2022-12-20T04:35:01;4.90;;;1.73;;
6356;SDS011;3211;53.452;-2.264;2022-12-20T04:37:28;6.07;;;1.60;;
6356;SDS011;3211;53.452;-2.264;2022-12-20T04:39:56;3.50;;;1.70;;
6356;SDS011;3211;53.452;-2.264;2022-12-20T04:42:43;9.40;;;1.47;;
6356;SDS011;3211;53.452;-2.264;2022-12-20T04:45:10;3.30;;;1.70;;
6356;SDS011;3211;53.452;-2.264;2022-12-20T04:47:37;3.57;;;1.63;;
6356;SDS011;3211;53.452;-2.264;2022-12-20T04:50:04;2.93;;;1.70;;
6356;SDS011;3211;53.452;-2.264;2022-12-20T04:52:32;1.70;;;1.27;;
6356;SDS011;3211;53.452;-2.264;2022-12-20T04:55:17;2.50;;;1.10;;
6356;SDS011;3211;53.452;-2.264;2022-12-20T04:57:45;7.00;;;1.50;;
6356;SDS011;3211;53.452;-2.264;2022-12-20T05:00:16;3.63;;;1.50;;
6356;SDS011;3211;53.452;-2.264;2022-12-20T05:02:43;3.20;;;1.40;;
6356;SDS011;3211;53.452;-2.264;2022-12-20T05:05:13;4.43;;;1.70;;
6356;SDS011;3211;53.452;-2.264;2022-12-20T05:07:40;3.97;;;1.70;;
6356;SDS011;3211;53.452;-2.264;2022-12-20T05:10:10;3.63;;;1.53;;
6356;SDS011;3211;53.452;-2.264;2022-12-20T05:12:37;4.40;;;1.30;;
6356;SDS011;3211;53.452;-2.264;2022-12-20T05:15:08;5.60;;;1.90;;
6356;SDS011;3211;53.452;-2.264;2022-12-20T05:17:36;2.10;;;1.50;;
6356;SDS011;3211;53.452;-2.264;2022-12-20T05:20:06;3.00;;;1.60;;
6356;SDS011;3211;53.452;-2.264;2022-12-20T05:22:34;3.37;;;1.40;;
6356;SDS011;3211;53.452;-2.264;2022-12-20T05:25:18;4.50;;;1.53;;
6356;SDS011;3211;53.452;-2.264;2022-12-20T05:28:21;3.80;;;1.40;;
6356;SDS011;3211;53.452;-2.264;2022-12-20T05:30:50;2.80;;;1.40;;
6356;SDS011;3211;53.452;-2.264;2022-12-20T05:33:35;1.93;;;1.13;;
6356;SDS011;3211;53.452;-2.264;2022-12-20T05:36:03;2.63;;;1.73;;
6356;SDS011;3211;53.452;-2.264;2022-12-20T05:38:30;6.30;;;1.77;;
6356;SDS011;3211;53.452;-2.264;2022-12-20T05:40:57;7.20;;;1.20;;
6356;SDS011;3211;53.452;-2.264;2022-12-20T05:43:43;6.50;;;1.77;;
6356;SDS011;3211;53.452;-2.264;2022-12-20T05:46:11;3.30;;;1.70;;
6356;SDS011;3211;53.452;-2.264;2022-12-20T05:48:38;5.43;;;1.50;;
6356;SDS011;3211;53.452;-2.264;2022-12-20T05:51:07;6.43;;;1.63;;
6356;SDS011;3211;53.452;-2.264;2022-12-20T05:53:34;4.80;;;1.57;;
6356;SDS011;3211;53.452;-2.264;2022-12-20T05:56:04;5.53;;;1.50;;
6356;SDS011;3211;53.452;-2.264;2022-12-20T05:58:32;4.97;;;1.50;;
6356;SDS011;3211;53.452;-2.264;2022-12-20T06:01:02;4.40;;;1.30;;
6356;SDS011;3211;53.452;-2.264;2022-12-20T06:03:32;4.97;;;1.83;;
6356;SDS011;3211;53.452;-2.264;2022-12-20T06:05:59;7.47;;;1.63;;
6356;SDS011;3211;53.452;-2.264;2022-12-20T06:08:26;3.00;;;1.33;;
6356;SDS011;3211;53.452;-2.264;2022-12-20T06:10:53;3.43;;;1.40;;
6356;SDS011;3211;53.452;-2.264;2022-12-20T06:13:39;5.00;;;1.50;;
6356;SDS011;3211;53.452;-2.264;2022-12-20T06:16:06;7.20;;;1.77;;
6356;SDS011;3211;53.452;-2.264;2022-12-20T06:18:34;6.47;;;1.50;;
6356;SDS011;3211;53.452;-2.264;2022-12-20T06:21:01;3.27;;;1.50;;
6356;SDS011;3211;53.452;-2.264;2022-12-20T06:23:28;8.13;;;2.03;;
6356;SDS011;3211;53.452;-2.264;2022-12-20T06:25:55;2.30;;;1.40;;
6356;SDS011;3211;53.452;-2.264;2022-12-20T06:28:22;11.27;;;1.83;;
6356;SDS011;3211;53.452;-2.264;2022-12-20T06:30:52;7.10;;;1.80;;
6356;SDS011;3211;53.452;-2.264;2022-12-20T06:33:19;11.40;;;2.67;;
6356;SDS011;3211;53.452;-2.264;2022-12-20T06:35:49;7.77;;;2.20;;
6356;SDS011;3211;53.452;-2.264;2022-12-20T06:38:16;5.50;;;1.90;;
6356;SDS011;3211;53.452;-2.264;2022-12-20T06:40:43;13.77;;;1.90;;
6356;SDS011;3211;53.452;-2.264;2022-12-20T06:43:10;5.07;;;1.67;;
6356;SDS011;3211;53.452;-2.264;2022-12-20T06:45:37;5.57;;;1.53;;
6356;SDS011;3211;53.452;-2.264;2022-12-20T06:48:04;6.53;;;2.00;;
6356;SDS011;3211;53.452;-2.264;2022-12-20T06:50:31;8.73;;;1.87;;
6356;SDS011;3211;53.452;-2.264;2022-12-20T06:52:59;6.67;;;1.87;;
6356;SDS011;3211;53.452;-2.264;2022-12-20T06:55:26;3.37;;;1.50;;
6356;SDS011;3211;53.452;-2.264;2022-12-20T06:57:53;9.47;;;2.30;;
6356;SDS011;3211;53.452;-2.264;2022-12-20T07:00:20;6.77;;;2.17;;
6356;SDS011;3211;53.452;-2.264;2022-12-20T07:02:48;9.43;;;2.30;;
6356;SDS011;3211;53.452;-2.264;2022-12-20T07:05:15;6.13;;;1.90;;
6356;SDS011;3211;53.452;-2.264;2022-12-20T07:07:42;5.07;;;1.77;;
6356;SDS011;3211;53.452;-2.264;2022-12-20T07:10:10;9.13;;;2.27;;
6356;SDS011;3211;53.452;-2.264;2022-12-20T07:12:37;5.47;;;1.80;;
6356;SDS011;3211;53.452;-2.264;2022-12-20T07:15:05;4.70;;;1.60;;
6356;SDS011;3211;53.452;-2.264;2022-12-20T07:17:33;9.80;;;2.40;;
6356;SDS011;3211;53.452;-2.264;2022-12-20T07:20:00;9.47;;;2.10;;
6356;SDS011;3211;53.452;-2.264;2022-12-20T07:22:27;6.93;;;1.90;;
6356;SDS011;3211;53.452;-2.264;2022-12-20T07:24:53;8.40;;;2.27;;
6356;SDS011;3211;53.452;-2.264;2022-12-20T07:27:22;11.53;;;2.13;;
6356;SDS011;3211;53.452;-2.264;2022-12-20T07:29:49;10.70;;;1.90;;
6356;SDS011;3211;53.452;-2.264;2022-12-20T07:32:16;10.80;;;2.00;;
6356;SDS011;3211;53.452;-2.264;2022-12-20T07:34:43;16.70;;;2.30;;
6356;SDS011;3211;53.452;-2.264;2022-12-20T07:37:10;7.23;;;2.07;;
6356;SDS011;3211;53.452;-2.264;2022-12-20T07:39:37;10.10;;;2.23;;
6356;SDS011;3211;53.452;-2.264;2022-12-20T07:42:06;9.63;;;1.90;;
6356;SDS011;3211;53.452;-2.264;2022-12-20T07:44:34;10.37;;;1.90;;
6356;SDS011;3211;53.452;-2.264;2022-12-20T07:47:01;6.03;;;1.70;;
6356;SDS011;3211;53.452;-2.264;2022-12-20T07:49:28;5.63;;;1.73;;
6356;SDS011;3211;53.452;-2.264;2022-12-20T07:51:56;6.77;;;1.83;;
6356;SDS011;3211;53.452;-2.264;2022-12-20T07:54:26;5.40;;;2.00;;
6356;SDS011;3211;53.452;-2.264;2022-12-20T07:56:56;7.77;;;1.87;;
6356;SDS011;3211;53.452;-2.264;2022-12-20T07:59:27;4.90;;;1.83;;
6356;SDS011;3211;53.452;-2.264;2022-12-20T08:02:01;9.67;;;2.27;;
6356;SDS011;3211;53.452;-2.264;2022-12-20T08:04:29;9.30;;;1.93;;
6356;SDS011;3211;53.452;-2.264;2022-12-20T08:06:56;14.47;;;2.60;;
6356;SDS011;3211;53.452;-2.264;2022-12-20T08:09:25;7.37;;;2.10;;
6356;SDS011;3211;53.452;-2.264;2022-12-20T08:11:56;11.83;;;2.10;;
6356;SDS011;3211;53.452;-2.264;2022-12-20T08:14:24;10.73;;;2.53;;
6356;SDS011;3211;53.452;-2.264;2022-12-20T08:16:51;11.63;;;2.20;;
6356;SDS011;3211;53.452;-2.264;2022-12-20T08:19:19;6.13;;;2.17;;
6356;SDS011;3211;53.452;-2.264;2022-12-20T08:21:46;8.50;;;2.40;;
6356;SDS011;3211;53.452;-2.264;2022-12-20T08:24:13;4.93;;;1.90;;
6356;SDS011;3211;53.452;-2.264;2022-12-20T08:26:40;6.30;;;2.30;;
6356;SDS011;3211;53.452;-2.264;2022-12-20T08:29:07;7.13;;;2.20;;
6356;SDS011;3211;53.452;-2.264;2022-12-20T08:31:35;3.87;;;1.90;;
6356;SDS011;3211;53.452;-2.264;2022-12-20T08:34:03;13.97;;;3.20;;
6356;SDS011;3211;53.452;-2.264;2022-12-20T08:36:31;7.43;;;2.10;;
6356;SDS011;3211;53.452;-2.264;2022-12-20T08:39:00;9.00;;;2.00;;
6356;SDS011;3211;53.452;-2.264;2022-12-20T08:41:28;9.90;;;1.93;;
6356;SDS011;3211;53.452;-2.264;2022-12-20T08:43:55;11.53;;;2.20;;
6356;SDS011;3211;53.452;-2.264;2022-12-20T08:46:22;10.47;;;2.33;;
6356;SDS011;3211;53.452;-2.264;2022-12-20T08:48:49;11.13;;;2.63;;
6356;SDS011;3211;53.452;-2.264;2022-12-20T08:51:17;15.53;;;2.87;;
6356;SDS011;3211;53.452;-2.264;2022-12-20T08:53:45;13.27;;;2.60;;
6356;SDS011;3211;53.452;-2.264;2022-12-20T08:56:13;10.33;;;3.30;;
6356;SDS011;3211;53.452;-2.264;2022-12-20T08:58:41;10.93;;;2.07;;
6356;SDS011;3211;53.452;-2.264;2022-12-20T09:01:10;5.40;;;1.90;;
6356;SDS011;3211;53.452;-2.264;2022-12-20T09:03:39;14.03;;;2.80;;
6356;SDS011;3211;53.452;-2.264;2022-12-20T09:06:07;16.07;;;2.03;;
6356;SDS011;3211;53.452;-2.264;2022-12-20T09:08:36;19.50;;;2.20;;
6356;SDS011;3211;53.452;-2.264;2022-12-20T09:11:06;13.40;;;2.63;;
6356;SDS011;3211;53.452;-2.264;2022-12-20T09:13:36;10.53;;;2.27;;
6356;SDS011;3211;53.452;-2.264;2022-12-20T09:16:04;10.23;;;2.10;;
6356;SDS011;3211;53.452;-2.264;2022-12-20T09:18:32;13.93;;;2.07;;
6356;SDS011;3211;53.452;-2.264;2022-12-20T09:20:59;14.80;;;2.50;;
6356;SDS011;3211;53.452;-2.264;2022-12-20T09:23:27;17.73;;;2.70;;
6356;SDS011;3211;53.452;-2.264;2022-12-20T09:25:55;12.83;;;2.60;;
6356;SDS011;3211;53.452;-2.264;2022-12-20T09:28:27;10.00;;;2.50;;
6356;SDS011;3211;53.452;-2.264;2022-12-20T09:30:56;9.57;;;2.03;;
6356;SDS011;3211;53.452;-2.264;2022-12-20T09:33:23;10.93;;;2.00;;
6356;SDS011;3211;53.452;-2.264;2022-12-20T09:35:50;9.80;;;2.47;;
6356;SDS011;3211;53.452;-2.264;2022-12-20T09:38:17;8.40;;;1.77;;
6356;SDS011;3211;53.452;-2.264;2022-12-20T09:40:44;8.37;;;2.63;;
6356;SDS011;3211;53.452;-2.264;2022-12-20T09:43:14;22.30;;;3.00;;
6356;SDS011;3211;53.452;-2.264;2022-12-20T09:45:43;9.60;;;2.50;;
6356;SDS011;3211;53.452;-2.264;2022-12-20T09:48:13;8.87;;;2.50;;
6356;SDS011;3211;53.452;-2.264;2022-12-20T09:50:46;12.80;;;2.83;;
6356;SDS011;3211;53.452;-2.264;2022-12-20T09:53:25;11.27;;;3.00;;
6356;SDS011;3211;53.452;-2.264;2022-12-20T09:56:02;18.17;;;3.20;;
6356;SDS011;3211;53.452;-2.264;2022-12-20T09:58:35;13.27;;;3.10;;
6356;SDS011;3211;53.452;-2.264;2022-12-20T10:01:15;8.50;;;2.47;;
6356;SDS011;3211;53.452;-2.264;2022-12-20T10:03:45;8.37;;;2.50;;
6356;SDS011;3211;53.452;-2.264;2022-12-20T10:06:14;12.40;;;2.60;;
6356;SDS011;3211;53.452;-2.264;2022-12-20T10:08:49;11.73;;;3.07;;
6356;SDS011;3211;53.452;-2.264;2022-12-20T10:11:33;6.70;;;2.03;;
6356;SDS011;3211;53.452;-2.264;2022-12-20T10:14:13;8.57;;;2.17;;
6356;SDS011;3211;53.452;-2.264;2022-12-20T10:16:54;10.67;;;2.67;;
6356;SDS011;3211;53.452;-2.264;2022-12-20T10:19:29;14.93;;;3.57;;
6356;SDS011;3211;53.452;-2.264;2022-12-20T10:22:10;11.70;;;2.43;;
6356;SDS011;3211;53.452;-2.264;2022-12-20T10:24:43;9.03;;;2.70;;
6356;SDS011;3211;53.452;-2.264;2022-12-20T10:27:17;19.93;;;4.20;;
6356;SDS011;3211;53.452;-2.264;2022-12-20T10:29:45;13.17;;;4.03;;
6356;SDS011;3211;53.452;-2.264;2022-12-20T10:32:15;11.23;;;2.30;;
6356;SDS011;3211;53.452;-2.264;2022-12-20T10:34:45;17.40;;;3.37;;
6356;SDS011;3211;53.452;-2.264;2022-12-20T10:37:19;14.77;;;2.43;;
6356;SDS011;3211;53.452;-2.264;2022-12-20T10:39:47;20.40;;;4.17;;
6356;SDS011;3211;53.452;-2.264;2022-12-20T10:42:22;17.77;;;3.83;;
6356;SDS011;3211;53.452;-2.264;2022-12-20T10:44:59;18.33;;;3.77;;
6356;SDS011;3211;53.452;-2.264;2022-12-20T10:47:33;13.20;;;2.90;;
6356;SDS011;3211;53.452;-2.264;2022-12-20T10:50:07;12.40;;;2.80;;
6356;SDS011;3211;53.452;-2.264;2022-12-20T10:52:35;15.63;;;3.17;;
6356;SDS011;3211;53.452;-2.264;2022-12-20T10:55:03;7.47;;;2.90;;
6356;SDS011;3211;53.452;-2.264;2022-12-20T10:58:00;11.37;;;2.87;;
6356;SDS011;3211;53.452;-2.264;2022-12-20T11:00:31;18.00;;;3.10;;
6356;SDS011;3211;53.452;-2.264;2022-12-20T11:03:08;12.87;;;2.80;;
6356;SDS011;3211;53.452;-2.264;2022-12-20T11:05:39;6.30;;;2.37;;
6356;SDS011;3211;53.452;-2.264;2022-12-20T11:08:17;11.90;;;2.70;;
6356;SDS011;3211;53.452;-2.264;2022-12-20T11:10:46;9.33;;;3.10;;
6356;SDS011;3211;53.452;-2.264;2022-12-20T11:13:20;5.77;;;2.30;;
6356;SDS011;3211;53.452;-2.264;2022-12-20T11:15:50;14.60;;;3.20;;
6356;SDS011;3211;53.452;-2.264;2022-12-20T11:18:25;15.63;;;4.57;;
6356;SDS011;3211;53.452;-2.264;2022-12-20T11:20:59;13.20;;;3.00;;
6356;SDS011;3211;53.452;-2.264;2022-12-20T11:23:36;16.40;;;2.90;;
6356;SDS011;3211;53.452;-2.264;2022-12-20T11:26:11;18.93;;;2.90;;
6356;SDS011;3211;53.452;-2.264;2022-12-20T11:28:54;9.53;;;2.83;;
6356;SDS011;3211;53.452;-2.264;2022-12-20T11:31:43;10.60;;;2.63;;
6356;SDS011;3211;53.452;-2.264;2022-12-20T11:34:21;9.50;;;2.90;;
6356;SDS011;3211;53.452;-2.264;2022-12-20T11:37:01;14.97;;;3.33;;
6356;SDS011;3211;53.452;-2.264;2022-12-20T11:39:38;9.53;;;2.90;;
6356;SDS011;3211;53.452;-2.264;2022-12-20T11:42:11;7.37;;;2.37;;
6356;SDS011;3211;53.452;-2.264;2022-12-20T11:44:48;5.83;;;2.30;;
6356;SDS011;3211;53.452;-2.264;2022-12-20T11:47:26;6.90;;;2.63;;
6356;SDS011;3211;53.452;-2.264;2022-12-20T11:50:11;9.23;;;2.97;;
6356;SDS011;3211;53.452;-2.264;2022-12-20T11:52:46;7.87;;;2.00;;
6356;SDS011;3211;53.452;-2.264;2022-12-20T11:55:16;6.90;;;2.47;;
6356;SDS011;3211;53.452;-2.264;2022-12-20T11:57:48;9.10;;;3.30;;
6356;SDS011;3211;53.452;-2.264;2022-12-20T12:00:21;11.20;;;3.07;;
6356;SDS011;3211;53.452;-2.264;2022-12-20T12:02:50;11.63;;;2.97;;
6356;SDS011;3211;53.452;-2.264;2022-12-20T12:05:23;7.10;;;2.50;;
6356;SDS011;3211;53.452;-2.264;2022-12-20T12:07:55;7.33;;;2.50;;
6356;SDS011;3211;53.452;-2.264;2022-12-20T12:10:26;12.07;;;3.00;;
6356;SDS011;3211;53.452;-2.264;2022-12-20T12:13:00;9.57;;;2.60;;
6356;SDS011;3211;53.452;-2.264;2022-12-20T12:15:37;10.00;;;2.50;;
6356;SDS011;3211;53.452;-2.264;2022-12-20T12:18:13;6.07;;;2.53;;
6356;SDS011;3211;53.452;-2.264;2022-12-20T12:20:49;14.73;;;2.87;;
6356;SDS011;3211;53.452;-2.264;2022-12-20T12:23:21;11.00;;;2.87;;
6356;SDS011;3211;53.452;-2.264;2022-12-20T12:25:52;8.73;;;2.80;;
6356;SDS011;3211;53.452;-2.264;2022-12-20T12:28:20;13.53;;;4.00;;
6356;SDS011;3211;53.452;-2.264;2022-12-20T12:30:51;7.23;;;2.50;;
6356;SDS011;3211;53.452;-2.264;2022-12-20T12:33:21;8.30;;;3.33;;
6356;SDS011;3211;53.452;-2.264;2022-12-20T12:35:59;13.67;;;2.70;;
6356;SDS011;3211;53.452;-2.264;2022-12-20T12:38:56;8.77;;;2.70;;
6356;SDS011;3211;53.452;-2.264;2022-12-20T12:41:54;9.83;;;2.70;;
6356;SDS011;3211;53.452;-2.264;2022-12-20T12:44:50;11.67;;;3.37;;
6356;SDS011;3211;53.452;-2.264;2022-12-20T12:47:20;11.73;;;3.67;;
6356;SDS011;3211;53.452;-2.264;2022-12-20T12:49:51;4.47;;;1.87;;
6356;SDS011;3211;53.452;-2.264;2022-12-20T12:52:36;14.40;;;3.13;;
6356;SDS011;3211;53.452;-2.264;2022-12-20T12:58:13;9.67;;;2.80;;
6356;SDS011;3211;53.452;-2.264;2022-12-20T13:01:07;10.93;;;2.70;;
6356;SDS011;3211;53.452;-2.264;2022-12-20T13:03:43;12.33;;;3.80;;
6356;SDS011;3211;53.452;-2.264;2022-12-20T13:09:16;9.37;;;2.80;;
6356;SDS011;3211;53.452;-2.264;2022-12-20T13:11:46;10.60;;;3.10;;
6356;SDS011;3211;53.452;-2.264;2022-12-20T13:17:39;11.00;;;3.37;;
6356;SDS011;3211;53.452;-2.264;2022-12-20T13:20:17;12.97;;;3.20;;
6356;SDS011;3211;53.452;-2.264;2022-12-20T13:25:44;13.70;;;2.67;;
6356;SDS011;3211;53.452;-2.264;2022-12-20T13:31:30;16.13;;;3.07;;
6356;SDS011;3211;53.452;-2.264;2022-12-20T13:33:59;9.10;;;2.50;;
6356;SDS011;3211;53.452;-2.264;2022-12-20T13:36:36;12.67;;;3.43;;
6356;SDS011;3211;53.452;-2.264;2022-12-20T13:39:27;6.33;;;3.63;;
6356;SDS011;3211;53.452;-2.264;2022-12-20T13:42:16;9.97;;;2.73;;
6356;SDS011;3211;53.452;-2.264;2022-12-20T13:44:52;8.27;;;2.93;;
6356;SDS011;3211;53.452;-2.264;2022-12-20T13:47:33;10.90;;;4.27;;
6356;SDS011;3211;53.452;-2.264;2022-12-20T13:50:20;11.13;;;2.90;;
6356;SDS011;3211;53.452;-2.264;2022-12-20T13:52:59;12.07;;;2.50;;
6356;SDS011;3211;53.452;-2.264;2022-12-20T13:55:37;5.87;;;2.83;;
6356;SDS011;3211;53.452;-2.264;2022-12-20T13:58:11;10.70;;;2.63;;
6356;SDS011;3211;53.452;-2.264;2022-12-20T14:00:41;8.77;;;2.80;;
6356;SDS011;3211;53.452;-2.264;2022-12-20T14:03:13;13.00;;;2.43;;
6356;SDS011;3211;53.452;-2.264;2022-12-20T14:05:46;11.07;;;3.33;;
6356;SDS011;3211;53.452;-2.264;2022-12-20T14:08:14;7.80;;;3.07;;
6356;SDS011;3211;53.452;-2.264;2022-12-20T14:10:44;10.50;;;3.10;;
6356;SDS011;3211;53.452;-2.264;2022-12-20T14:13:19;13.43;;;3.00;;
6356;SDS011;3211;53.452;-2.264;2022-12-20T14:15:49;7.47;;;2.80;;
6356;SDS011;3211;53.452;-2.264;2022-12-20T14:18:17;10.43;;;2.97;;
6356;SDS011;3211;53.452;-2.264;2022-12-20T14:21:04;14.73;;;3.30;;
6356;SDS011;3211;53.452;-2.264;2022-12-20T14:23:33;14.30;;;3.17;;
6356;SDS011;3211;53.452;-2.264;2022-12-20T14:26:03;8.30;;;2.80;;
6356;SDS011;3211;53.452;-2.264;2022-12-20T14:28:34;12.47;;;2.97;;
6356;SDS011;3211;53.452;-2.264;2022-12-20T14:31:03;17.23;;;3.50;;
6356;SDS011;3211;53.452;-2.264;2022-12-20T14:33:33;11.97;;;3.30;;
6356;SDS011;3211;53.452;-2.264;2022-12-20T14:36:06;14.50;;;4.40;;
6356;SDS011;3211;53.452;-2.264;2022-12-20T14:38:34;16.53;;;4.60;;
6356;SDS011;3211;53.452;-2.264;2022-12-20T14:41:01;18.30;;;3.73;;
6356;SDS011;3211;53.452;-2.264;2022-12-20T14:43:33;12.93;;;4.40;;
6356;SDS011;3211;53.452;-2.264;2022-12-20T14:46:14;15.03;;;3.33;;
6356;SDS011;3211;53.452;-2.264;2022-12-20T14:48:43;9.97;;;2.60;;
6356;SDS011;3211;53.452;-2.264;2022-12-20T14:51:10;10.30;;;3.23;;
6356;SDS011;3211;53.452;-2.264;2022-12-20T14:53:39;13.10;;;3.33;;
6356;SDS011;3211;53.452;-2.264;2022-12-20T14:56:12;11.40;;;3.23;;
6356;SDS011;3211;53.452;-2.264;2022-12-20T14:58:44;15.20;;;3.63;;
6356;SDS011;3211;53.452;-2.264;2022-12-20T15:01:18;16.53;;;3.43;;
6356;SDS011;3211;53.452;-2.264;2022-12-20T15:03:49;17.93;;;3.13;;
6356;SDS011;3211;53.452;-2.264;2022-12-20T15:06:30;8.20;;;2.73;;
6356;SDS011;3211;53.452;-2.264;2022-12-20T15:08:58;8.80;;;2.97;;
6356;SDS011;3211;53.452;-2.264;2022-12-20T15:11:27;15.50;;;3.30;;
6356;SDS011;3211;53.452;-2.264;2022-12-20T15:13:56;9.70;;;3.00;;
6356;SDS011;3211;53.452;-2.264;2022-12-20T15:16:23;16.43;;;3.80;;
6356;SDS011;3211;53.452;-2.264;2022-12-20T15:18:52;14.43;;;3.23;;
6356;SDS011;3211;53.452;-2.264;2022-12-20T15:21:26;9.83;;;2.80;;
6356;SDS011;3211;53.452;-2.264;2022-12-20T15:23:55;11.77;;;2.77;;
6356;SDS011;3211;53.452;-2.264;2022-12-20T15:26:23;10.60;;;2.50;;
6356;SDS011;3211;53.452;-2.264;2022-12-20T15:28:51;11.13;;;3.13;;
6356;SDS011;3211;53.452;-2.264;2022-12-20T15:31:20;7.53;;;2.40;;
6356;SDS011;3211;53.452;-2.264;2022-12-20T15:33:49;8.13;;;2.60;;
6356;SDS011;3211;53.452;-2.264;2022-12-20T15:36:18;8.87;;;2.40;;
6356;SDS011;3211;53.452;-2.264;2022-12-20T15:38:47;8.73;;;2.30;;
6356;SDS011;3211;53.452;-2.264;2022-12-20T15:41:16;9.73;;;2.90;;